Time;durP1;ratioP1;P1;durP2;ratioP2;P2;SDS_P1;SDS_P2;PMS_P1;PMS_P2;Temp;Humidity;BMP_temperature;BMP_pressure;BME280_temperature;BME280_humidity;BME280_pressure;Samples;Min_cycle;Max_cycle;Signal;HPM_P1;HPM_P2
2022/08/26 00:02:06;;;;;;;3.70;2.00;;;;;;;;;;5044129;28;20045;-72
2022/08/26 00:04:35;;;;;;;3.17;1.75;;;;;;;;;;5049134;28;20044;-72
2022/08/26 00:07:03;;;;;;;6.25;2.55;;;;;;;;;;5044061;28;20135;-72
2022/08/26 00:09:33;;;;;;;2.70;1.55;;;;;;;;;;5046050;28;20053;-73
2022/08/26 00:12:07;;;;;;;;;;;;;;;;;;5049267;28;20103;-72
2022/08/26 00:14:37;;;;;;;2.92;1.83;;;;;;;;;;5047674;28;20031;-72
2022/08/26 00:17:06;;;;;;;4.65;1.38;;;;;;;;;;5049965;28;20055;-72
2022/08/26 00:19:36;;;;;;;3.33;1.35;;;;;;;;;;5046610;28;20049;-72
2022/08/26 00:22:05;;;;;;;4.18;1.50;;;;;;;;;;5047978;28;20426;-72
2022/08/26 00:24:33;;;;;;;6.30;1.70;;;;;;;;;;5042521;28;20182;-72
2022/08/26 00:27:01;;;;;;;3.47;1.80;;;;;;;;;;5038733;28;20147;-72
2022/08/26 00:29:31;;;;;;;4.00;2.22;;;;;;;;;;5045312;28;20409;-72
2022/08/26 00:32:06;;;;;;;2.97;1.52;;;;;;;;;;5047805;28;20045;-72
2022/08/26 00:34:35;;;;;;;3.45;2.30;;;;;;;;;;5047687;28;20045;-72
2022/08/26 00:37:03;;;;;;;2.50;1.60;;;;;;;;;;5040228;28;20136;-71
2022/08/26 00:39:37;;;;;;;2.65;1.83;;;;;;;;;;5048044;28;20481;-72
2022/08/26 00:42:05;;;;;;;6.90;1.77;;;;;;;;;;5048092;28;20140;-72
2022/08/26 00:44:34;;;;;;;2.30;1.50;;;;;;;;;;5046719;28;20076;-72
2022/08/26 00:47:05;;;;;;;2.65;1.40;;;;;;;;;;5047153;28;20132;-72
2022/08/26 00:49:38;;;;;;;4.15;1.80;;;;;;;;;;5046368;28;20958;-72
2022/08/26 00:52:08;;;;;;;3.08;1.48;;;;;;;;;;5043437;28;20072;-71
2022/08/26 00:54:44;;;;;;;3.10;1.83;;;;;;;;;;5047383;28;20053;-72
2022/08/26 00:57:14;;;;;;;3.35;1.52;;;;;;;;;;5039099;28;20387;-72
2022/08/26 00:59:44;;;;;;;3.58;1.48;;;;;;;;;;5044226;28;20044;-72
2022/08/26 01:02:13;;;;;;;4.40;1.77;;;;;;;;;;5049496;28;20497;-72
2022/08/26 01:04:50;;;;;;;1.48;1.13;;;;;;;;;;5048247;28;20111;-72
2022/08/26 01:07:23;;;;;;;3.13;1.48;;;;;;;;;;5046642;28;20403;-72
2022/08/26 01:09:51;;;;;;;3.65;2.58;;;;;;;;;;5043788;28;20072;-72
2022/08/26 01:12:21;;;;;;;2.25;1.30;;;;;;;;;;5047178;28;20134;-72
2022/08/26 01:14:49;;;;;;;2.78;1.67;;;;;;;;;;5045307;28;20057;-72
2022/08/26 01:17:18;;;;;;;2.83;1.95;;;;;;;;;;5045028;28;20407;-72
2022/08/26 01:19:49;;;;;;;4.10;1.75;;;;;;;;;;5044386;28;20044;-71
2022/08/26 01:22:22;;;;;;;9.80;1.73;;;;;;;;;;5047561;28;20052;-72
2022/08/26 01:24:57;;;;;;;3.28;1.33;;;;;;;;;;5038694;28;20045;-72
2022/08/26 01:27:29;;;;;;;2.88;1.95;;;;;;;;;;5047683;28;20542;-72
2022/08/26 01:30:00;;;;;;;2.70;1.42;;;;;;;;;;5046786;28;20507;-72
2022/08/26 01:32:29;;;;;;;2.28;1.48;;;;;;;;;;5049577;28;20068;-72
2022/08/26 01:34:59;;;;;;;2.28;1.50;;;;;;;;;;5045187;28;20484;-72
2022/08/26 01:37:29;;;;;;;2.90;1.67;;;;;;;;;;5044302;28;20053;-72
2022/08/26 01:39:59;;;;;;;2.92;1.50;;;;;;;;;;5046503;28;20157;-72
2022/08/26 01:42:28;;;;;;;2.85;1.20;;;;;;;;;;5047908;28;20160;-72
2022/08/26 01:44:58;;;;;;;2.42;1.42;;;;;;;;;;5045782;28;20605;-72
2022/08/26 01:47:27;;;;;;;4.10;1.63;;;;;;;;;;5036290;28;20429;-72
2022/08/26 01:50:00;;;;;;;4.28;1.73;;;;;;;;;;5029400;28;20045;-72
2022/08/26 01:52:30;;;;;;;2.10;1.35;;;;;;;;;;5018902;28;20463;-72
2022/08/26 01:55:01;;;;;;;2.58;1.58;;;;;;;;;;5029881;28;20125;-72
2022/08/26 01:57:29;;;;;;;1.60;1.10;;;;;;;;;;5026645;28;20069;-72
2022/08/26 02:00:00;;;;;;;3.30;1.98;;;;;;;;;;5027717;28;20505;-72
2022/08/26 02:02:29;;;;;;;2.83;1.77;;;;;;;;;;5031153;28;20087;-72
2022/08/26 02:05:00;;;;;;;6.60;1.40;;;;;;;;;;5030623;28;20522;-72
2022/08/26 02:07:29;;;;;;;3.78;1.70;;;;;;;;;;5032402;28;20140;-72
2022/08/26 02:10:01;;;;;;;3.53;1.48;;;;;;;;;;5028307;28;20142;-72
2022/08/26 02:12:31;;;;;;;2.20;1.83;;;;;;;;;;5026685;28;20053;-72
2022/08/26 02:15:01;;;;;;;1.83;1.48;;;;;;;;;;5042440;28;20485;-71
2022/08/26 02:17:35;;;;;;;1.70;1.10;;;;;;;;;;5036895;28;20099;-72
2022/08/26 02:20:06;;;;;;;3.00;1.48;;;;;;;;;;5037953;28;20140;-72
2022/08/26 02:22:42;;;;;;;2.70;1.88;;;;;;;;;;5041819;28;20293;-72
2022/08/26 02:25:16;;;;;;;4.65;1.00;;;;;;;;;;5031640;28;20119;-72
2022/08/26 02:27:47;;;;;;;4.55;1.73;;;;;;;;;;5040058;28;20136;-72
2022/08/26 02:30:16;;;;;;;1.95;1.10;;;;;;;;;;5048237;28;20041;-72
2022/08/26 02:32:45;;;;;;;2.75;1.50;;;;;;;;;;5049652;28;20127;-72
2022/08/26 02:35:18;;;;;;;3.13;1.48;;;;;;;;;;5046435;28;20048;-72
2022/08/26 02:37:47;;;;;;;3.80;1.52;;;;;;;;;;5044562;28;20077;-72
2022/08/26 02:40:20;;;;;;;0.85;0.77;;;;;;;;;;5048441;28;20056;-72
2022/08/26 02:42:49;;;;;;;2.83;1.58;;;;;;;;;;5051968;28;20059;-72
2022/08/26 02:45:20;;;;;;;4.10;1.58;;;;;;;;;;5049279;28;20053;-72
2022/08/26 02:47:51;;;;;;;1.52;1.20;;;;;;;;;;5045194;28;20068;-73
2022/08/26 02:50:21;;;;;;;2.28;1.17;;;;;;;;;;5047982;28;20045;-72
2022/08/26 02:52:49;;;;;;;2.90;1.33;;;;;;;;;;5049517;28;20056;-72
2022/08/26 02:55:19;;;;;;;2.53;1.67;;;;;;;;;;5050065;28;20052;-72
2022/08/26 02:57:51;;;;;;;6.35;1.25;;;;;;;;;;5043881;28;20148;-72
2022/08/26 03:00:20;;;;;;;3.17;1.13;;;;;;;;;;5047979;28;20047;-72
2022/08/26 03:02:51;;;;;;;3.13;1.40;;;;;;;;;;5046049;28;20127;-72
2022/08/26 03:05:20;;;;;;;2.17;1.15;;;;;;;;;;5050964;28;20147;-72
2022/08/26 03:07:51;;;;;;;2.33;1.38;;;;;;;;;;5045819;28;20049;-72
2022/08/26 03:10:22;;;;;;;2.15;1.10;;;;;;;;;;5050068;28;20048;-72
2022/08/26 03:12:53;;;;;;;3.20;1.38;;;;;;;;;;5047191;28;20056;-72
2022/08/26 03:15:21;;;;;;;3.85;1.17;;;;;;;;;;5051757;28;20051;-72
2022/08/26 03:17:50;;;;;;;4.07;1.27;;;;;;;;;;5045344;28;20411;-72
2022/08/26 03:20:18;;;;;;;1.83;1.27;;;;;;;;;;5051862;28;20136;-72
2022/08/26 03:22:48;;;;;;;2.20;1.35;;;;;;;;;;5047865;28;20084;-72
2022/08/26 03:25:18;;;;;;;3.30;1.30;;;;;;;;;;5049148;28;20500;-72
2022/08/26 03:27:48;;;;;;;2.47;1.52;;;;;;;;;;5046246;28;20049;-71
2022/08/26 03:33:03;;;;;;;1.52;1.02;;;;;;;;;;5049331;28;20041;-72
2022/08/26 03:35:32;;;;;;;2.83;1.52;;;;;;;;;;5048570;28;20577;-72
2022/08/26 03:38:02;;;;;;;1.55;1.10;;;;;;;;;;5044511;28;20090;-72
2022/08/26 03:40:32;;;;;;;3.85;1.17;;;;;;;;;;5051490;28;20119;-72
2022/08/26 03:43:02;;;;;;;3.05;1.27;;;;;;;;;;5044613;28;20567;-72
2022/08/26 03:45:31;;;;;;;1.65;0.95;;;;;;;;;;5045865;28;20340;-72
2022/08/26 03:48:00;;;;;;;2.50;1.25;;;;;;;;;;5044964;28;20087;-72
2022/08/26 03:50:29;;;;;;;2.33;1.55;;;;;;;;;;5050441;28;20424;-72
2022/08/26 03:53:01;;;;;;;2.65;1.30;;;;;;;;;;5046514;28;20048;-72
2022/08/26 03:55:32;;;;;;;1.83;1.17;;;;;;;;;;5048046;28;20131;-72
2022/08/26 03:58:02;;;;;;;2.65;1.75;;;;;;;;;;5048755;28;20127;-72
2022/08/26 04:00:30;;;;;;;2.13;1.05;;;;;;;;;;5039794;28;20080;-72
2022/08/26 04:03:01;;;;;;;1.27;0.88;;;;;;;;;;5049877;28;20060;-72
2022/08/26 04:05:30;;;;;;;1.38;0.88;;;;;;;;;;5046985;28;20053;-72
2022/08/26 04:07:58;;;;;;;4.55;1.23;;;;;;;;;;5048409;28;20076;-72
2022/08/26 04:10:27;;;;;;;4.40;1.90;;;;;;;;;;5049840;28;20045;-72
2022/08/26 04:12:57;;;;;;;1.30;1.20;;;;;;;;;;5048289;28;20058;-73
2022/08/26 04:15:27;;;;;;;4.63;1.35;;;;;;;;;;5045885;28;20064;-72
2022/08/26 04:17:57;;;;;;;3.17;2.03;;;;;;;;;;5047965;28;20045;-73
2022/08/26 04:20:25;;;;;;;2.45;1.17;;;;;;;;;;5049404;28;20132;-72
2022/08/26 04:22:54;;;;;;;1.60;1.00;;;;;;;;;;5047754;28;20083;-73
2022/08/26 04:25:22;;;;;;;2.20;1.30;;;;;;;;;;5048677;28;20406;-73
2022/08/26 04:27:51;;;;;;;3.40;1.73;;;;;;;;;;5049110;28;20053;-71
2022/08/26 04:30:20;;;;;;;2.05;1.52;;;;;;;;;;5048756;28;20045;-72
2022/08/26 04:32:49;;;;;;;2.58;1.38;;;;;;;;;;5044190;28;20048;-72
2022/08/26 04:35:18;;;;;;;2.58;1.13;;;;;;;;;;5048241;28;20140;-72
2022/08/26 04:37:53;;;;;;;;;;;;;;;;;;5048417;28;20044;-72
2022/08/26 04:40:21;;;;;;;4.70;1.42;;;;;;;;;;5049401;28;19967;-72
2022/08/26 04:42:50;;;;;;;6.22;1.38;;;;;;;;;;5047236;28;20049;-72
2022/08/26 04:45:18;;;;;;;2.05;1.13;;;;;;;;;;5048065;28;20059;-72
2022/08/26 04:47:55;;;;;;;1.98;1.42;;;;;;;;;;5045160;28;20041;-72
2022/08/26 04:50:24;;;;;;;2.22;1.38;;;;;;;;;;5043566;28;20091;-72
2022/08/26 04:52:54;;;;;;;2.35;1.42;;;;;;;;;;5049403;28;20072;-72
2022/08/26 04:55:22;;;;;;;2.58;1.52;;;;;;;;;;5047773;28;20063;-73
2022/08/26 04:58:07;;;;;;;2.65;0.77;;;;;;;;;;5046581;28;20496;-72
2022/08/26 05:00:38;;;;;;;1.02;0.98;;;;;;;;;;5047870;28;20119;-72
2022/08/26 05:03:08;;;;;;;1.42;1.00;;;;;;;;;;5046847;28;20500;-72
2022/08/26 05:05:38;;;;;;;1.85;1.02;;;;;;;;;;5046559;28;20055;-72
2022/08/26 05:08:07;;;;;;;2.30;1.60;;;;;;;;;;5047188;28;20056;-73
2022/08/26 05:10:39;;;;;;;1.40;1.17;;;;;;;;;;5042128;28;20044;-72
2022/08/26 05:13:08;;;;;;;2.13;1.27;;;;;;;;;;5049395;28;20049;-72
2022/08/26 05:15:39;;;;;;;2.63;1.55;;;;;;;;;;5047656;28;20504;-72
2022/08/26 05:18:10;;;;;;;2.22;1.23;;;;;;;;;;5045888;28;20040;-73
2022/08/26 05:20:39;;;;;;;4.53;1.25;;;;;;;;;;5046170;28;20152;-73
2022/08/26 05:23:08;;;;;;;2.13;1.02;;;;;;;;;;5046152;28;20443;-73
2022/08/26 05:25:39;;;;;;;2.33;1.67;;;;;;;;;;5050043;28;20052;-74
2022/08/26 05:28:07;;;;;;;1.70;1.55;;;;;;;;;;5048956;28;20556;-73
2022/08/26 05:30:36;;;;;;;3.35;1.52;;;;;;;;;;5047733;28;20099;-73
2022/08/26 05:33:04;;;;;;;1.65;1.00;;;;;;;;;;5042209;28;20041;-73
2022/08/26 05:35:34;;;;;;;5.85;1.52;;;;;;;;;;5044317;28;20135;-74
2022/08/26 05:38:04;;;;;;;2.55;1.63;;;;;;;;;;5039999;28;20520;-74
2022/08/26 05:40:40;;;;;;;2.17;1.20;;;;;;;;;;5047920;28;20053;-73
2022/08/26 05:43:09;;;;;;;1.75;1.13;;;;;;;;;;5046402;28;20467;-73
2022/08/26 05:45:38;;;;;;;2.83;1.38;;;;;;;;;;5045006;28;20136;-73
2022/08/26 05:48:14;;;;;;;5.65;1.63;;;;;;;;;;5045420;28;20041;-72
2022/08/26 05:50:46;;;;;;;2.47;1.20;;;;;;;;;;5048748;28;20132;-72
2022/08/26 05:53:16;;;;;;;2.17;1.02;;;;;;;;;;5046958;28;20470;-72
2022/08/26 05:55:45;;;;;;;2.85;1.65;;;;;;;;;;5044588;28;20123;-72
2022/08/26 05:58:14;;;;;;;3.67;2.00;;;;;;;;;;5045145;28;20065;-72
2022/08/26 06:00:45;;;;;;;4.13;1.17;;;;;;;;;;5045835;28;20504;-73
2022/08/26 06:03:13;;;;;;;3.42;1.33;;;;;;;;;;5039270;28;20095;-72
2022/08/26 06:05:42;;;;;;;3.00;1.50;;;;;;;;;;5039986;28;20076;-72
2022/08/26 06:08:17;;;;;;;3.92;1.58;;;;;;;;;;5024653;28;20057;-73
2022/08/26 06:10:47;;;;;;;2.47;1.40;;;;;;;;;;5017083;28;20046;-73
2022/08/26 06:13:17;;;;;;;2.60;1.00;;;;;;;;;;5017842;28;20733;-73
2022/08/26 06:15:46;;;;;;;1.85;0.98;;;;;;;;;;5022115;28;20061;-73
2022/08/26 06:18:15;;;;;;;2.20;1.17;;;;;;;;;;5025852;28;20052;-73
2022/08/26 06:20:45;;;;;;;2.20;1.20;;;;;;;;;;5024864;28;20045;-73
2022/08/26 06:26:13;;;;;;;2.35;1.33;;;;;;;;;;5004722;28;20485;-73
2022/08/26 06:28:42;;;;;;;4.55;2.20;;;;;;;;;;5023021;28;20565;-73
2022/08/26 06:31:13;;;;;;;7.65;1.35;;;;;;;;;;5029839;28;20129;-73
2022/08/26 06:33:42;;;;;;;3.13;2.08;;;;;;;;;;5023112;28;20053;-73
2022/08/26 06:36:15;;;;;;;2.63;1.75;;;;;;;;;;5020877;28;20554;-73
2022/08/26 06:38:47;;;;;;;4.38;2.28;;;;;;;;;;5024131;28;20060;-73
2022/08/26 06:41:16;;;;;;;3.58;1.60;;;;;;;;;;5021285;28;20112;-73
2022/08/26 06:43:45;;;;;;;2.88;1.65;;;;;;;;;;5017239;28;20053;-73
2022/08/26 06:46:15;;;;;;;4.95;1.90;;;;;;;;;;5026925;28;20072;-73
2022/08/26 06:48:44;;;;;;;7.35;2.63;;;;;;;;;;5027101;28;20550;-73
2022/08/26 06:51:13;;;;;;;4.22;2.63;;;;;;;;;;5026302;28;20053;-73
2022/08/26 06:53:44;;;;;;;6.78;2.42;;;;;;;;;;5027434;28;20289;-73
2022/08/26 06:56:15;;;;;;;3.80;2.47;;;;;;;;;;5028368;28;20469;-73
2022/08/26 06:58:44;;;;;;;4.00;2.22;;;;;;;;;;5031682;28;20049;-73
2022/08/26 07:01:17;;;;;;;4.22;1.88;;;;;;;;;;5031233;28;20064;-73
2022/08/26 07:03:47;;;;;;;6.75;2.03;;;;;;;;;;5026925;28;20054;-73
2022/08/26 07:06:17;;;;;;;2.58;2.30;;;;;;;;;;5027642;28;20076;-73
2022/08/26 07:08:45;;;;;;;5.70;2.42;;;;;;;;;;5030896;28;20041;-73
2022/08/26 07:11:16;;;;;;;4.55;2.17;;;;;;;;;;5028737;28;20421;-73
2022/08/26 07:13:44;;;;;;;3.97;2.20;;;;;;;;;;5028144;28;20103;-72
2022/08/26 07:16:15;;;;;;;6.57;2.17;;;;;;;;;;5025767;28;20049;-73
2022/08/26 07:18:44;;;;;;;5.75;1.73;;;;;;;;;;5048765;28;20060;-73
2022/08/26 07:21:14;;;;;;;6.38;2.83;;;;;;;;;;5050457;28;20045;-73
2022/08/26 07:23:42;;;;;;;3.85;2.30;;;;;;;;;;5048163;28;20072;-73
2022/08/26 07:26:14;;;;;;;4.75;2.25;;;;;;;;;;5049759;28;20049;-72
2022/08/26 07:28:44;;;;;;;4.18;2.00;;;;;;;;;;5029624;28;20076;-73
2022/08/26 07:31:14;;;;;;;4.25;2.00;;;;;;;;;;5031216;28;20053;-73
2022/08/26 07:33:43;;;;;;;5.45;1.95;;;;;;;;;;5032284;28;20045;-73
2022/08/26 07:36:12;;;;;;;5.57;2.60;;;;;;;;;;5029931;28;20092;-73
2022/08/26 07:38:43;;;;;;;4.75;2.85;;;;;;;;;;5029141;28;20065;-73
2022/08/26 07:41:12;;;;;;;6.03;2.47;;;;;;;;;;5029831;28;20065;-73
2022/08/26 07:43:40;;;;;;;4.35;2.63;;;;;;;;;;5025664;28;20083;-73
2022/08/26 07:46:10;;;;;;;4.78;2.58;;;;;;;;;;5030930;28;20572;-73
2022/08/26 07:48:43;;;;;;;5.65;2.53;;;;;;;;;;5050394;28;20405;-73
2022/08/26 07:51:14;;;;;;;5.28;2.50;;;;;;;;;;5045678;28;20409;-72
2022/08/26 07:53:42;;;;;;;3.92;2.10;;;;;;;;;;5052038;28;20411;-72
2022/08/26 07:56:15;;;;;;;6.47;2.50;;;;;;;;;;5045623;28;20041;-73
2022/08/26 07:58:43;;;;;;;4.82;2.45;;;;;;;;;;5050389;28;20071;-73
2022/08/26 08:01:20;;;;;;;4.50;2.47;;;;;;;;;;5050167;28;20095;-73
2022/08/26 08:03:50;;;;;;;4.15;2.20;;;;;;;;;;5049169;28;20045;-73
2022/08/26 08:06:19;;;;;;;6.28;2.17;;;;;;;;;;5044236;28;20049;-73
2022/08/26 08:08:49;;;;;;;4.40;2.53;;;;;;;;;;5046821;28;20513;-73
2022/08/26 08:11:20;;;;;;;10.43;3.05;;;;;;;;;;5044927;28;20560;-73
2022/08/26 08:13:49;;;;;;;7.13;2.35;;;;;;;;;;5051823;28;20053;-73
2022/08/26 08:16:25;;;;;;;4.20;2.58;;;;;;;;;;5046938;28;20148;-73
2022/08/26 08:18:55;;;;;;;6.13;2.70;;;;;;;;;;5047963;28;20077;-73
2022/08/26 08:21:24;;;;;;;7.05;2.47;;;;;;;;;;5051743;28;20041;-73
2022/08/26 08:23:52;;;;;;;4.57;2.60;;;;;;;;;;5049451;28;20052;-73
2022/08/26 08:26:22;;;;;;;8.77;2.58;;;;;;;;;;5047157;28;20064;-73
2022/08/26 08:28:51;;;;;;;10.88;2.88;;;;;;;;;;5046541;28;20124;-72
2022/08/26 08:31:20;;;;;;;4.13;2.47;;;;;;;;;;5050540;28;20099;-73
2022/08/26 08:34:10;;;;;;;4.63;2.58;;;;;;;;;;5042898;28;20049;-73
2022/08/26 08:36:38;;;;;;;4.88;2.08;;;;;;;;;;5049016;28;20053;-73
2022/08/26 08:39:08;;;;;;;4.18;2.50;;;;;;;;;;5049883;28;20385;-73
2022/08/26 08:41:44;;;;;;;4.88;2.10;;;;;;;;;;5048622;28;20045;-73
2022/08/26 08:44:14;;;;;;;6.32;2.45;;;;;;;;;;5039592;28;20136;-73
2022/08/26 08:46:43;;;;;;;5.82;2.92;;;;;;;;;;5047174;28;20063;-73
2022/08/26 08:49:14;;;;;;;6.70;2.20;;;;;;;;;;5046759;28;20053;-73
2022/08/26 08:51:45;;;;;;;4.63;2.42;;;;;;;;;;5047692;28;20049;-73
2022/08/26 08:54:14;;;;;;;6.35;2.67;;;;;;;;;;5039738;28;20283;-73
2022/08/26 08:56:45;;;;;;;4.38;2.70;;;;;;;;;;5038359;28;20059;-73
2022/08/26 08:59:15;;;;;;;3.58;2.17;;;;;;;;;;5050234;28;20037;-73
2022/08/26 09:01:49;;;;;;;7.68;2.08;;;;;;;;;;5048026;28;20348;-73
2022/08/26 09:04:31;;;;;;;2.70;1.83;;;;;;;;;;5044919;28;20532;-72
2022/08/26 09:07:01;;;;;;;4.05;2.15;;;;;;;;;;5047102;28;20059;-73
2022/08/26 09:09:32;;;;;;;3.85;2.35;;;;;;;;;;5045918;28;20055;-73
2022/08/26 09:12:02;;;;;;;5.57;2.70;;;;;;;;;;5046805;28;20085;-73
2022/08/26 09:14:31;;;;;;;4.43;2.67;;;;;;;;;;5045649;28;20049;-73
2022/08/26 09:17:02;;;;;;;4.00;2.17;;;;;;;;;;5046605;28;20491;-73
2022/08/26 09:19:38;;;;;;;3.47;2.15;;;;;;;;;;5032298;28;20052;-73
2022/08/26 09:22:07;;;;;;;3.90;2.13;;;;;;;;;;5042574;28;20079;-73
2022/08/26 09:24:40;;;;;;;4.88;2.13;;;;;;;;;;5045755;28;20045;-73
2022/08/26 09:27:36;;;;;;;4.40;2.15;;;;;;;;;;5043055;28;20518;-72
2022/08/26 09:30:05;;;;;;;3.40;2.30;;;;;;;;;;5042678;28;20463;-73
2022/08/26 09:32:34;;;;;;;3.05;2.08;;;;;;;;;;5040592;28;20099;-74
2022/08/26 09:35:06;;;;;;;10.35;2.50;;;;;;;;;;5045686;28;20130;-74
2022/08/26 09:37:37;;;;;;;13.40;2.88;;;;;;;;;;5042150;28;20044;-74
2022/08/26 09:40:13;;;;;;;4.30;2.45;;;;;;;;;;5041647;28;20074;-74
2022/08/26 09:42:42;;;;;;;8.52;2.55;;;;;;;;;;5043865;28;20127;-74
2022/08/26 09:45:11;;;;;;;4.13;1.75;;;;;;;;;;5046821;28;20049;-73
2022/08/26 09:47:41;;;;;;;3.20;1.70;;;;;;;;;;5041966;28;20053;-74
2022/08/26 09:50:19;;;;;;;3.65;1.80;;;;;;;;;;5047341;28;20545;-73
2022/08/26 09:52:48;;;;;;;3.80;2.50;;;;;;;;;;5034614;28;20103;-74
2022/08/26 09:55:22;;;;;;;3.15;1.83;;;;;;;;;;5042856;28;20106;-74
2022/08/26 09:57:52;;;;;;;2.20;1.70;;;;;;;;;;5031077;28;20064;-74
2022/08/26 10:00:29;;;;;;;4.85;2.63;;;;;;;;;;5036459;28;20049;-74
2022/08/26 10:02:59;;;;;;;3.55;2.08;;;;;;;;;;5039279;28;20110;-73
2022/08/26 10:05:32;;;;;;;2.42;1.83;;;;;;;;;;5036381;28;20594;-74
2022/08/26 10:08:00;;;;;;;6.32;2.13;;;;;;;;;;5036011;28;20141;-74
2022/08/26 10:10:32;;;;;;;7.03;2.15;;;;;;;;;;5042362;28;20106;-74
2022/08/26 10:13:03;;;;;;;5.78;2.05;;;;;;;;;;5038951;28;20409;-74
2022/08/26 10:15:36;;;;;;;4.43;1.95;;;;;;;;;;5044879;28;20061;-73
2022/08/26 10:18:10;;;;;;;3.13;1.92;;;;;;;;;;5038455;28;20049;-74
2022/08/26 10:20:46;;;;;;;4.13;1.88;;;;;;;;;;5043962;28;20519;-73
2022/08/26 10:23:17;;;;;;;4.28;1.90;;;;;;;;;;5043831;28;20052;-74
2022/08/26 10:25:47;;;;;;;4.47;2.25;;;;;;;;;;5041862;28;20136;-74
2022/08/26 10:28:21;;;;;;;5.05;2.10;;;;;;;;;;5042848;28;20798;-74
2022/08/26 10:30:52;;;;;;;2.47;1.88;;;;;;;;;;5046195;28;20160;-74
2022/08/26 10:33:20;;;;;;;5.25;2.22;;;;;;;;;;5046908;28;20558;-74
2022/08/26 10:35:54;;;;;;;5.15;2.42;;;;;;;;;;5040743;28;20057;-74
2022/08/26 10:38:27;;;;;;;3.65;1.83;;;;;;;;;;5046629;28;20052;-73
2022/08/26 10:40:58;;;;;;;5.13;1.90;;;;;;;;;;5049152;28;20515;-73
2022/08/26 10:43:27;;;;;;;3.22;2.00;;;;;;;;;;5041213;28;20079;-74
2022/08/26 10:46:00;;;;;;;2.67;1.70;;;;;;;;;;5046394;28;20140;-74
2022/08/26 10:48:35;;;;;;;3.33;2.20;;;;;;;;;;5023764;28;20096;-73
2022/08/26 10:51:10;;;;;;;3.78;2.00;;;;;;;;;;5030862;28;20076;-74
2022/08/26 10:53:42;;;;;;;4.45;2.53;;;;;;;;;;5032889;28;20077;-73
2022/08/26 10:56:14;;;;;;;2.70;1.50;;;;;;;;;;5030830;28;20316;-74
2022/08/26 10:58:46;;;;;;;;;;;;;;;;;;5048807;28;20049;-73
2022/08/26 11:04:14;;;;;;;5.30;2.30;;;;;;;;;;5046565;28;20063;-73
2022/08/26 11:06:44;;;;;;;5.05;2.03;;;;;;;;;;5039661;28;20140;-74
2022/08/26 11:09:33;;;;;;;3.33;2.47;;;;;;;;;;5026165;28;20153;-74
2022/08/26 11:12:03;;;;;;;6.63;2.17;;;;;;;;;;5028208;28;20081;-70
2022/08/26 11:14:38;;;;;;;2.65;1.85;;;;;;;;;;5021811;28;20405;-71
2022/08/26 11:17:54;;;;;;;5.63;2.33;;;;;;;;;;5021109;28;20478;-70
2022/08/26 11:20:31;;;;;;;2.80;1.63;;;;;;;;;;5030332;28;20057;-70
2022/08/26 11:23:15;;;;;;;1.50;1.23;;;;;;;;;;5027534;28;20550;-70
2022/08/26 11:25:59;;;;;;;7.03;2.72;;;;;;;;;;5024551;28;20068;-70
2022/08/26 11:28:34;;;;;;;5.05;2.03;;;;;;;;;;5043344;28;20473;-70
2022/08/26 11:31:06;;;;;;;8.75;2.55;;;;;;;;;;5037730;28;20130;-69
2022/08/26 11:33:59;;;;;;;3.13;1.92;;;;;;;;;;5044604;28;20052;-75
2022/08/26 11:36:37;;;;;;;2.22;1.58;;;;;;;;;;5042821;28;20049;-76
2022/08/26 11:39:15;;;;;;;1.92;1.27;;;;;;;;;;5042239;28;20103;-74
2022/08/26 11:41:44;;;;;;;2.33;1.42;;;;;;;;;;5047116;28;20044;-75
2022/08/26 11:44:18;;;;;;;4.88;2.00;;;;;;;;;;5053156;28;20136;-75
2022/08/26 11:46:55;;;;;;;3.35;1.63;;;;;;;;;;5046232;28;20386;-75
2022/08/26 11:49:24;;;;;;;3.70;0.90;;;;;;;;;;5047613;28;20080;-75
2022/08/26 11:51:53;;;;;;;2.15;1.48;;;;;;;;;;5050296;28;20057;-75
2022/08/26 11:54:46;;;;;;;2.30;1.30;;;;;;;;;;5045790;28;20139;-75
2022/08/26 11:57:15;;;;;;;3.50;2.20;;;;;;;;;;5046662;28;20324;-75
2022/08/26 11:59:45;;;;;;;5.18;1.60;;;;;;;;;;5049709;28;20056;-75
2022/08/26 12:02:16;;;;;;;2.88;1.40;;;;;;;;;;5049898;28;20139;-75
2022/08/26 12:04:47;;;;;;;3.60;1.67;;;;;;;;;;5046656;28;20049;-75
2022/08/26 12:07:16;;;;;;;3.70;1.92;;;;;;;;;;5043977;28;20089;-75
2022/08/26 12:09:53;;;;;;;2.95;1.60;;;;;;;;;;5049217;28;20103;-76
2022/08/26 12:12:25;;;;;;;7.45;1.50;;;;;;;;;;5058513;28;20059;-75
2022/08/26 12:15:08;;;;;;;2.25;1.60;;;;;;;;;;5053521;28;20428;-75
2022/08/26 12:17:38;;;;;;;7.15;1.70;;;;;;;;;;5044046;28;20049;-75
2022/08/26 12:20:17;;;;;;;1.98;1.77;;;;;;;;;;5049407;28;20041;-75
2022/08/26 12:22:46;;;;;;;3.10;1.70;;;;;;;;;;5048720;28;20688;-75
2022/08/26 12:25:22;;;;;;;2.97;1.40;;;;;;;;;;5054155;28;20360;-75
2022/08/26 12:27:52;;;;;;;5.13;1.40;;;;;;;;;;5053717;28;20126;-75
2022/08/26 12:30:24;;;;;;;4.07;1.50;;;;;;;;;;5047684;28;20053;-74
2022/08/26 12:32:54;;;;;;;6.22;2.03;;;;;;;;;;5038573;28;20136;-74
2022/08/26 12:35:27;;;;;;;3.70;1.85;;;;;;;;;;5053709;28;20045;-74
2022/08/26 12:37:57;;;;;;;8.65;1.35;;;;;;;;;;5042582;28;20068;-74
2022/08/26 12:40:26;;;;;;;2.75;1.33;;;;;;;;;;5049947;28;20049;-75
2022/08/26 12:42:55;;;;;;;5.63;1.45;;;;;;;;;;5044787;28;20072;-76
2022/08/26 12:45:29;;;;;;;1.50;1.15;;;;;;;;;;5044675;28;20091;-75
2022/08/26 12:48:00;;;;;;;2.43;1.37;;;;;;;;;;5042906;28;20044;-75
2022/08/26 12:50:30;;;;;;;2.58;1.70;;;;;;;;;;5049503;28;20516;-74
2022/08/26 12:53:00;;;;;;;3.55;2.05;;;;;;;;;;5043180;28;20084;-74
2022/08/26 12:55:35;;;;;;;2.33;1.73;;;;;;;;;;5048322;28;20048;-74
2022/08/26 12:58:11;;;;;;;2.15;1.40;;;;;;;;;;5048887;28;20056;-74
2022/08/26 13:00:42;;;;;;;3.30;1.38;;;;;;;;;;5049221;28;20555;-74
2022/08/26 13:03:31;;;;;;;3.47;1.35;;;;;;;;;;5048358;28;20068;-74
2022/08/26 13:06:09;;;;;;;1.75;1.17;;;;;;;;;;5044464;28;20045;-75
2022/08/26 13:08:43;;;;;;;2.85;1.33;;;;;;;;;;5034635;28;20056;-73
2022/08/26 13:11:14;;;;;;;4.63;1.60;;;;;;;;;;5048266;28;20465;-74
2022/08/26 13:13:42;;;;;;;2.20;1.27;;;;;;;;;;5039530;28;20484;-74
2022/08/26 13:16:13;;;;;;;2.53;1.50;;;;;;;;;;5045956;28;20511;-74
2022/08/26 13:18:41;;;;;;;3.17;1.52;;;;;;;;;;5044428;28;20056;-74
2022/08/26 13:21:12;;;;;;;2.13;1.45;;;;;;;;;;5035820;28;20090;-73
2022/08/26 13:23:41;;;;;;;4.70;1.38;;;;;;;;;;5046097;28;20182;-74
2022/08/26 13:26:28;;;;;;;5.18;1.70;;;;;;;;;;5044188;28;20051;-75
2022/08/26 13:28:58;;;;;;;1.73;1.17;;;;;;;;;;5040693;28;20066;-73
2022/08/26 13:35:03;;;;;;;3.75;1.80;;;;;;;;;;5039538;28;20083;-73
2022/08/26 13:37:33;;;;;;;4.75;1.80;;;;;;;;;;5038161;28;20662;-73
2022/08/26 13:40:06;;;;;;;3.85;1.92;;;;;;;;;;5040541;28;20576;-72
2022/08/26 13:42:35;;;;;;;7.30;1.73;;;;;;;;;;5040020;28;20512;-72
2022/08/26 13:45:04;;;;;;;4.43;1.50;;;;;;;;;;5033043;28;20044;-72
2022/08/26 13:47:33;;;;;;;2.88;1.67;;;;;;;;;;5044626;28;20089;-71
2022/08/26 13:50:04;;;;;;;2.15;1.55;;;;;;;;;;5046882;28;20091;-72
2022/08/26 13:52:33;;;;;;;2.53;1.38;;;;;;;;;;5045889;28;20053;-71
2022/08/26 13:55:02;;;;;;;3.03;1.50;;;;;;;;;;5042876;28;20062;-72
2022/08/26 13:57:31;;;;;;;4.38;1.40;;;;;;;;;;5051678;28;20128;-72
2022/08/26 13:59:59;;;;;;;2.03;1.70;;;;;;;;;;5048333;28;20586;-72
2022/08/26 14:02:29;;;;;;;6.43;1.58;;;;;;;;;;5047670;28;20114;-71
2022/08/26 14:04:58;;;;;;;3.05;1.50;;;;;;;;;;5047029;28;20053;-72
2022/08/26 14:07:28;;;;;;;5.13;1.98;;;;;;;;;;5043411;28;20205;-71
2022/08/26 14:09:56;;;;;;;4.03;1.58;;;;;;;;;;5040950;28;20601;-72
2022/08/26 14:12:25;;;;;;;3.63;1.85;;;;;;;;;;5051333;28;20071;-72
2022/08/26 14:14:54;;;;;;;5.03;1.40;;;;;;;;;;5049762;28;20106;-72
2022/08/26 14:17:23;;;;;;;1.85;1.25;;;;;;;;;;5043797;28;20057;-72
2022/08/26 14:19:53;;;;;;;1.80;1.45;;;;;;;;;;5043810;28;20041;-72
2022/08/26 14:22:22;;;;;;;2.10;1.33;;;;;;;;;;5048765;28;20087;-75
2022/08/26 14:24:52;;;;;;;2.78;1.52;;;;;;;;;;5049121;28;20056;-75
2022/08/26 14:27:21;;;;;;;1.92;1.17;;;;;;;;;;5031795;28;20045;-75
2022/08/26 14:29:49;;;;;;;1.90;1.30;;;;;;;;;;5024879;28;20042;-74
2022/08/26 14:32:21;;;;;;;3.53;1.55;;;;;;;;;;5030814;28;20140;-74
2022/08/26 14:34:50;;;;;;;4.88;1.50;;;;;;;;;;5032360;28;20053;-75
2022/08/26 14:37:19;;;;;;;3.42;1.52;;;;;;;;;;5033938;28;20485;-75
2022/08/26 14:39:47;;;;;;;2.03;1.35;;;;;;;;;;5031891;28;20051;-75
2022/08/26 14:42:18;;;;;;;3.42;1.08;;;;;;;;;;5032519;28;20045;-75
2022/08/26 14:44:50;;;;;;;6.07;1.40;;;;;;;;;;5032797;28;20053;-75
2022/08/26 14:47:19;;;;;;;1.42;1.00;;;;;;;;;;5031169;28;20065;-75
2022/08/26 14:49:47;;;;;;;1.75;1.02;;;;;;;;;;5032344;28;20080;-76
2022/08/26 14:52:16;;;;;;;1.83;1.30;;;;;;;;;;5033895;28;20140;-76
2022/08/26 14:54:43;;;;;;;2.53;0.90;;;;;;;;;;5031007;28;20440;-75
2022/08/26 14:57:12;;;;;;;2.92;1.40;;;;;;;;;;5032019;28;20125;-76
2022/08/26 14:59:43;;;;;;;2.72;1.17;;;;;;;;;;5030559;28;20132;-75
2022/08/26 15:02:17;;;;;;;2.97;1.40;;;;;;;;;;5031266;28;20049;-76
2022/08/26 15:05:01;;;;;;;1.90;1.20;;;;;;;;;;5031470;28;20048;-75
2022/08/26 15:07:29;;;;;;;2.30;1.58;;;;;;;;;;5028084;28;20068;-75
2022/08/26 15:09:58;;;;;;;3.42;1.13;;;;;;;;;;5033937;28;20104;-75
2022/08/26 15:12:26;;;;;;;2.15;1.23;;;;;;;;;;5028869;28;20125;-75
2022/08/26 15:14:56;;;;;;;3.35;1.70;;;;;;;;;;5030345;28;20567;-74
2022/08/26 15:17:25;;;;;;;10.68;2.90;;;;;;;;;;5030773;28;20542;-74
2022/08/26 15:19:53;;;;;;;1.67;1.33;;;;;;;;;;5029584;28;20144;-75